createdAt,value
2018-01-26T00:01:49.031Z,7.80
2018-01-26T00:04:15.266Z,7.80
2018-01-26T00:06:41.575Z,7.90
2018-01-26T00:09:08.070Z,7.90
2018-01-26T00:11:37.316Z,7.80
2018-01-26T00:14:03.559Z,7.80
2018-01-26T00:16:29.823Z,7.90
2018-01-26T00:18:56.054Z,7.90
2018-01-26T00:21:22.315Z,7.90
2018-01-26T00:23:48.594Z,7.90
2018-01-26T00:26:14.855Z,7.90
2018-01-26T00:28:41.867Z,7.90
2018-01-26T00:31:08.395Z,7.90
2018-01-26T00:33:34.654Z,7.80
2018-01-26T00:36:00.890Z,7.80
2018-01-26T00:38:27.163Z,7.90
2018-01-26T00:40:53.402Z,7.90
2018-01-26T00:43:19.748Z,7.80
2018-01-26T00:45:46.013Z,7.80
2018-01-26T00:48:12.253Z,7.70
2018-01-26T00:50:38.544Z,7.70
2018-01-26T00:53:05.560Z,7.70
2018-01-26T00:55:31.816Z,7.70
2018-01-26T00:57:58.103Z,7.70
2018-01-26T01:00:24.420Z,7.70
2018-01-26T01:02:50.654Z,7.70
2018-01-26T01:05:16.956Z,7.70
2018-01-26T01:07:43.223Z,7.70
2018-01-26T01:10:09.583Z,7.70
2018-01-26T01:12:35.826Z,7.70
2018-01-26T01:15:02.129Z,7.70
2018-01-26T01:17:28.379Z,7.70
2018-01-26T01:19:54.675Z,7.70
2018-01-26T01:22:21.224Z,7.70
2018-01-26T01:24:47.482Z,7.60
2018-01-26T01:27:13.763Z,7.60
2018-01-26T01:29:40.006Z,7.60
2018-01-26T01:32:06.419Z,7.60
2018-01-26T01:34:32.662Z,7.60
2018-01-26T01:36:58.946Z,7.60
2018-01-26T01:39:25.195Z,7.60
2018-01-26T01:41:51.464Z,7.60
2018-01-26T01:44:17.709Z,7.60
2018-01-26T01:46:43.967Z,7.60
2018-01-26T01:49:15.210Z,7.60
2018-01-26T01:51:41.511Z,7.60
2018-01-26T01:54:07.736Z,7.50
2018-01-26T01:56:34.240Z,7.60
2018-01-26T01:59:00.511Z,7.60
2018-01-26T02:01:26.735Z,7.60
2018-01-26T02:03:53.007Z,7.50
2018-01-26T02:06:19.271Z,7.60
2018-01-26T02:08:45.587Z,7.60
2018-01-26T02:11:11.827Z,7.60
2018-01-26T02:13:38.099Z,7.60
2018-01-26T02:16:04.335Z,7.60
2018-01-26T02:18:30.619Z,7.50
2018-01-26T02:20:57.159Z,7.50
2018-01-26T02:23:23.417Z,7.50
2018-01-26T02:25:49.802Z,7.50
2018-01-26T02:28:16.103Z,7.50
2018-01-26T02:30:43.177Z,7.60
2018-01-26T02:33:09.495Z,7.60
2018-01-26T02:35:36.566Z,7.50
2018-01-26T02:38:21.184Z,7.50
2018-01-26T02:40:47.447Z,7.50
2018-01-26T02:43:13.690Z,7.40
2018-01-26T02:45:40.802Z,7.40
2018-01-26T02:48:07.958Z,7.50
2018-01-26T02:50:34.231Z,7.50
2018-01-26T02:53:00.511Z,7.50
2018-01-26T02:55:27.512Z,7.60
2018-01-26T02:57:54.087Z,7.60
2018-01-26T03:00:20.680Z,7.60
2018-01-26T03:02:46.950Z,7.60
2018-01-26T03:05:13.206Z,7.60
2018-01-26T03:07:39.471Z,7.60
2018-01-26T03:10:05.731Z,7.60
2018-01-26T03:12:32.002Z,7.60
2018-01-26T03:14:59.080Z,7.50
2018-01-26T03:17:25.478Z,7.50
2018-01-26T03:19:51.799Z,7.50
2018-01-26T03:22:18.035Z,7.40
2018-01-26T03:24:44.312Z,7.40
2018-01-26T03:27:10.619Z,7.30
2018-01-26T03:29:37.618Z,7.40
2018-01-26T03:32:03.875Z,7.40
2018-01-26T03:34:30.159Z,7.40
2018-01-26T03:36:56.395Z,7.50
2018-01-26T03:39:22.675Z,7.40
2018-01-26T03:41:48.903Z,7.40
2018-01-26T03:44:15.155Z,7.40
2018-01-26T03:46:42.182Z,7.30
2018-01-26T03:49:08.445Z,7.30
2018-01-26T03:51:35.423Z,7.40
2018-01-26T03:54:01.676Z,7.30
2018-01-26T03:56:31.815Z,7.30
2018-01-26T03:58:58.571Z,7.30
2018-01-26T04:01:25.586Z,7.20
2018-01-26T04:03:51.886Z,7.20
2018-01-26T04:06:18.131Z,7.20
2018-01-26T04:08:44.436Z,7.30
2018-01-26T04:11:11.477Z,7.10
2018-01-26T04:13:37.719Z,7.10
2018-01-26T04:16:03.958Z,7.00
2018-01-26T04:18:30.211Z,6.90
2018-01-26T04:20:56.446Z,6.90
2018-01-26T04:23:22.894Z,6.90
2018-01-26T04:25:49.129Z,6.90
2018-01-26T04:28:15.490Z,6.80
2018-01-26T04:30:42.488Z,6.80
2018-01-26T04:33:08.749Z,6.80
2018-01-26T04:35:34.981Z,6.80
2018-01-26T04:38:01.231Z,6.90
2018-01-26T04:40:27.458Z,6.80
2018-01-26T04:42:53.886Z,6.90
2018-01-26T04:45:20.209Z,6.80
2018-01-26T04:47:46.535Z,6.80
2018-01-26T04:50:12.819Z,6.80
2018-01-26T04:52:39.310Z,6.80
2018-01-26T04:55:05.855Z,6.90
2018-01-26T04:57:32.836Z,6.90
2018-01-26T04:59:59.115Z,6.90
2018-01-26T05:02:25.379Z,6.80
2018-01-26T05:04:52.394Z,6.80
2018-01-26T05:07:18.703Z,6.80
2018-01-26T05:09:44.947Z,6.90
2018-01-26T05:12:11.176Z,6.90
2018-01-26T05:14:37.460Z,6.90
2018-01-26T05:17:03.724Z,6.90
2018-01-26T05:19:29.973Z,6.80
2018-01-26T05:21:56.288Z,6.70
2018-01-26T05:24:22.567Z,6.70
2018-01-26T05:26:48.835Z,6.70
2018-01-26T05:29:15.143Z,6.60
2018-01-26T05:31:41.406Z,6.60
2018-01-26T05:34:07.715Z,6.60
2018-01-26T05:36:34.257Z,6.60
2018-01-26T05:39:00.743Z,6.60
2018-01-26T05:41:27.043Z,6.60
2018-01-26T05:43:53.355Z,6.60
2018-01-26T05:46:19.615Z,6.60
2018-01-26T05:48:45.911Z,6.50
2018-01-26T05:51:12.151Z,6.50
2018-01-26T05:53:38.647Z,6.50
2018-01-26T05:56:04.904Z,6.60
2018-01-26T05:58:31.168Z,6.60
2018-01-26T06:00:57.419Z,6.60
2018-01-26T06:03:23.689Z,6.60
2018-01-26T06:05:49.950Z,6.60
2018-01-26T06:08:16.432Z,6.60
2018-01-26T06:10:42.683Z,6.60
2018-01-26T06:13:09.727Z,6.60
2018-01-26T06:15:35.968Z,6.60
2018-01-26T06:18:06.625Z,6.70
2018-01-26T06:20:34.050Z,6.70
2018-01-26T06:23:12.797Z,6.80
2018-01-26T06:25:39.067Z,6.90
2018-01-26T06:28:05.346Z,6.90
2018-01-26T06:30:32.383Z,6.90
2018-01-26T06:32:59.420Z,6.90
2018-01-26T06:35:26.615Z,6.90
2018-01-26T06:37:52.871Z,6.90
2018-01-26T06:40:19.283Z,6.90
2018-01-26T06:42:45.859Z,6.90
2018-01-26T06:45:12.115Z,6.80
2018-01-26T06:47:38.356Z,6.80
2018-01-26T06:50:05.766Z,6.80
2018-01-26T06:52:32.155Z,6.80
2018-01-26T06:54:58.443Z,6.80
2018-01-26T06:57:24.703Z,6.80
2018-01-26T06:59:50.951Z,6.80
2018-01-26T07:02:17.238Z,6.90
2018-01-26T07:04:43.488Z,6.90
2018-01-26T07:07:09.771Z,6.90
2018-01-26T07:09:36.018Z,6.90
2018-01-26T07:12:02.314Z,7.00
2018-01-26T07:14:28.690Z,7.00
2018-01-26T07:16:55.062Z,6.90
2018-01-26T07:19:21.379Z,6.90
2018-01-26T07:21:47.650Z,6.90
2018-01-26T07:24:14.068Z,6.90
2018-01-26T07:26:40.342Z,7.00
2018-01-26T07:29:06.573Z,7.00
2018-01-26T07:31:32.816Z,7.00
2018-01-26T07:33:59.076Z,7.00
2018-01-26T07:36:25.410Z,7.00
2018-01-26T07:38:51.763Z,7.00
2018-01-26T07:41:18.755Z,7.00
2018-01-26T07:43:45.024Z,7.00
2018-01-26T07:46:11.258Z,7.00
2018-01-26T07:48:40.046Z,7.00
2018-01-26T07:51:06.314Z,7.00
2018-01-26T07:53:32.604Z,7.00
2018-01-26T07:55:58.855Z,7.00
2018-01-26T07:58:25.896Z,7.10
2018-01-26T08:00:52.131Z,7.00
2018-01-26T08:03:18.391Z,7.10
2018-01-26T08:05:46.118Z,7.10
2018-01-26T08:08:13.159Z,7.30
2018-01-26T08:10:39.450Z,7.30
2018-01-26T08:13:05.731Z,7.20
2018-01-26T08:15:32.815Z,7.40
2018-01-26T08:18:00.039Z,7.40
2018-01-26T08:20:26.360Z,7.40
2018-01-26T08:22:52.594Z,7.30
2018-01-26T08:25:18.864Z,7.40
2018-01-26T08:27:45.234Z,7.40
2018-01-26T08:30:11.504Z,7.40
2018-01-26T08:32:37.849Z,7.50
2018-01-26T08:35:04.172Z,7.50
2018-01-26T08:37:30.428Z,7.50
2018-01-26T08:39:56.786Z,7.60
2018-01-26T08:42:23.259Z,7.70
2018-01-26T08:44:49.507Z,7.80
2018-01-26T08:47:16.610Z,7.90
2018-01-26T08:49:42.846Z,7.90
2018-01-26T08:52:09.110Z,8.00
2018-01-26T08:54:35.384Z,8.00
2018-01-26T08:57:01.639Z,8.10
2018-01-26T08:59:28.147Z,8.30
2018-01-26T09:01:54.447Z,8.30
2018-01-26T09:04:20.706Z,8.30
2018-01-26T09:06:47.032Z,8.30
2018-01-26T09:09:13.284Z,8.30
2018-01-26T09:11:39.626Z,8.30
2018-01-26T09:14:05.833Z,8.30
2018-01-26T09:16:32.807Z,8.40
2018-01-26T09:18:59.130Z,8.30
2018-01-26T09:21:26.103Z,8.30
2018-01-26T09:23:52.347Z,8.40
2018-01-26T09:26:18.676Z,8.40
2018-01-26T09:28:44.923Z,8.50
2018-01-26T09:31:11.439Z,8.50
2018-01-26T09:33:37.699Z,8.60
2018-01-26T09:36:04.683Z,8.60
2018-01-26T09:38:30.957Z,8.60
2018-01-26T09:40:57.179Z,8.70
2018-01-26T09:43:23.420Z,8.70
2018-01-26T09:45:49.763Z,8.60
2018-01-26T09:48:16.768Z,8.60
2018-01-26T09:50:43.048Z,8.50
2018-01-26T09:53:09.375Z,8.60
2018-01-26T09:55:35.634Z,8.70
2018-01-26T09:58:04.279Z,8.80
2018-01-26T10:00:31.483Z,8.80
2018-01-26T10:02:57.807Z,8.80
2018-01-26T10:05:24.140Z,8.90
2018-01-26T10:07:51.120Z,8.90
2018-01-26T10:10:17.367Z,8.90
2018-01-26T10:12:43.720Z,9.10
2018-01-26T10:15:09.959Z,9.10
2018-01-26T10:17:36.976Z,9.20
2018-01-26T10:20:03.307Z,9.20
2018-01-26T10:22:29.551Z,9.20
2018-01-26T10:24:55.817Z,9.30
2018-01-26T10:27:22.835Z,9.20
2018-01-26T10:29:49.111Z,9.20
2018-01-26T10:32:15.359Z,9.00
2018-01-26T10:34:41.647Z,9.00
2018-01-26T10:37:08.625Z,9.10
2018-01-26T10:39:34.872Z,9.10
2018-01-26T10:42:01.139Z,9.00
2018-01-26T10:44:28.435Z,9.20
2018-01-26T10:46:55.395Z,9.20
2018-01-26T10:49:21.647Z,9.20
2018-01-26T10:51:47.938Z,9.30
2018-01-26T10:54:14.907Z,9.30
2018-01-26T10:56:41.174Z,9.30
2018-01-26T10:59:07.811Z,9.20
2018-01-26T11:01:34.082Z,9.40
2018-01-26T11:04:01.054Z,9.50
2018-01-26T11:06:28.139Z,9.50
2018-01-26T11:08:54.736Z,9.50
2018-01-26T11:11:21.015Z,9.50
2018-01-26T11:13:47.257Z,9.50
2018-01-26T11:16:13.520Z,9.60
2018-01-26T11:18:39.770Z,9.50
2018-01-26T11:21:06.017Z,9.60
2018-01-26T11:23:32.277Z,9.60
2018-01-26T11:25:58.663Z,9.80
2018-01-26T11:28:24.914Z,10.00
2018-01-26T11:30:51.210Z,10.10
2018-01-26T11:33:17.536Z,10.00
2018-01-26T11:35:43.833Z,9.90
2018-01-26T11:38:10.671Z,10.00
2018-01-26T11:40:36.919Z,10.10
2018-01-26T11:45:57.146Z,10.00
2018-01-26T11:48:23.414Z,10.00
2018-01-26T11:50:49.659Z,10.10
2018-01-26T11:53:15.927Z,10.10
2018-01-26T11:55:42.293Z,10.00
2018-01-26T11:58:08.526Z,10.00
2018-01-26T12:00:34.835Z,10.00
2018-01-26T12:03:01.082Z,10.20
2018-01-26T12:05:27.955Z,10.40
2018-01-26T12:07:54.203Z,10.30
2018-01-26T12:10:20.480Z,10.30
2018-01-26T12:12:46.746Z,10.50
2018-01-26T12:15:13.012Z,10.60
2018-01-26T12:17:39.243Z,10.90
2018-01-26T12:20:05.549Z,11.10
2018-01-26T12:22:32.534Z,11.30
2018-01-26T12:24:59.582Z,11.30
2018-01-26T12:27:25.851Z,11.30
2018-01-26T12:29:53.108Z,11.00
2018-01-26T12:32:20.086Z,10.90
2018-01-26T12:34:46.474Z,10.90
2018-01-26T12:37:12.727Z,11.00
2018-01-26T12:39:39.005Z,11.10
2018-01-26T12:42:05.260Z,11.00
2018-01-26T12:44:31.527Z,10.90
2018-01-26T12:46:57.879Z,10.70
2018-01-26T12:49:24.119Z,10.50
2018-01-26T12:51:50.383Z,10.60
2018-01-26T12:54:17.423Z,10.80
2018-01-26T12:56:44.463Z,10.80
2018-01-26T12:59:10.707Z,10.80
2018-01-26T13:01:37.243Z,10.70
2018-01-26T13:04:03.536Z,10.90
2018-01-26T13:06:29.887Z,11.10
2018-01-26T13:08:56.254Z,11.10
2018-01-26T13:11:23.259Z,11.10
2018-01-26T13:13:49.680Z,11.00
2018-01-26T13:16:16.720Z,11.20
2018-01-26T13:18:43.021Z,11.20
2018-01-26T13:21:09.303Z,11.50
2018-01-26T13:23:35.646Z,11.60
2018-01-26T13:26:01.871Z,11.80
2018-01-26T13:28:28.133Z,11.70
2018-01-26T13:30:54.386Z,11.70
2018-01-26T13:33:20.680Z,11.40
2018-01-26T13:35:47.144Z,11.20
2018-01-26T13:38:13.448Z,11.10
2018-01-26T13:40:40.000Z,11.00
2018-01-26T13:43:07.068Z,11.10
2018-01-26T13:45:34.062Z,11.20
2018-01-26T13:48:00.491Z,11.10
2018-01-26T13:50:26.799Z,11.00
2018-01-26T13:52:53.105Z,11.00
2018-01-26T13:55:19.347Z,11.10
2018-01-26T13:57:45.606Z,11.00
2018-01-26T14:00:11.894Z,11.00
2018-01-26T14:02:38.143Z,11.00
2018-01-26T14:05:04.522Z,10.80
2018-01-26T14:07:30.757Z,10.90
2018-01-26T14:09:57.039Z,11.00
2018-01-26T14:12:23.291Z,11.00
2018-01-26T14:14:52.374Z,10.80
2018-01-26T14:17:18.607Z,10.80
2018-01-26T14:19:44.869Z,10.70
2018-01-26T14:22:11.200Z,10.60
2018-01-26T14:24:37.679Z,10.70
2018-01-26T14:27:03.971Z,10.70
2018-01-26T14:29:30.219Z,10.90
2018-01-26T14:31:56.487Z,11.00
2018-01-26T14:34:22.770Z,11.00
2018-01-26T14:36:49.022Z,10.90
2018-01-26T14:39:15.271Z,10.90
2018-01-26T14:41:41.603Z,10.70
2018-01-26T14:44:07.870Z,10.60
2018-01-26T14:46:34.707Z,10.60
2018-01-26T14:49:00.946Z,10.40
2018-01-26T14:51:27.215Z,10.40
2018-01-26T14:53:53.443Z,10.40
2018-01-26T14:56:19.698Z,10.40
2018-01-26T14:58:46.736Z,10.40
2018-01-26T15:01:13.083Z,10.50
2018-01-26T15:03:40.327Z,10.50
2018-01-26T15:06:07.368Z,10.40
2018-01-26T15:08:33.742Z,10.40
2018-01-26T15:10:59.999Z,10.50
2018-01-26T15:13:26.259Z,10.70
2018-01-26T15:15:52.827Z,10.80
2018-01-26T15:18:19.095Z,10.90
2018-01-26T15:20:45.318Z,10.90
2018-01-26T15:23:11.651Z,11.00
2018-01-26T15:25:37.975Z,11.00
2018-01-26T15:28:04.278Z,11.10
2018-01-26T15:30:33.122Z,11.20
2018-01-26T15:32:59.470Z,11.20
2018-01-26T15:35:25.718Z,11.00
2018-01-26T15:37:51.955Z,10.70
2018-01-26T15:40:18.239Z,10.60
2018-01-26T15:42:44.498Z,10.40
2018-01-26T15:45:10.819Z,10.40
2018-01-26T15:47:37.039Z,10.50
2018-01-26T15:50:03.309Z,10.30
2018-01-26T15:52:29.577Z,10.10
2018-01-26T15:54:55.867Z,9.90
2018-01-26T15:57:22.343Z,9.80
2018-01-26T15:59:48.613Z,9.70
2018-01-26T16:02:14.891Z,9.50
2018-01-26T16:04:41.312Z,9.40
2018-01-26T16:07:07.639Z,9.20
2018-01-26T16:09:33.911Z,9.10
2018-01-26T16:12:00.225Z,9.00
2018-01-26T16:14:26.480Z,9.00
2018-01-26T16:16:52.763Z,8.90
2018-01-26T16:19:19.010Z,8.90
2018-01-26T16:21:46.119Z,8.70
2018-01-26T16:24:12.387Z,8.70
2018-01-26T16:26:39.930Z,8.60
2018-01-26T16:29:06.227Z,8.60
2018-01-26T16:31:32.511Z,8.50
2018-01-26T16:33:58.987Z,8.40
2018-01-26T16:36:26.180Z,8.30
2018-01-26T16:38:52.492Z,8.30
2018-01-26T16:41:18.903Z,8.20
2018-01-26T16:43:45.247Z,8.20
2018-01-26T16:46:11.578Z,8.20
2018-01-26T16:48:38.070Z,8.20
2018-01-26T16:51:05.123Z,8.10
2018-01-26T16:53:32.168Z,8.00
2018-01-26T16:55:58.617Z,8.00
2018-01-26T16:58:25.936Z,7.90
2018-01-26T17:00:53.055Z,7.90
2018-01-26T17:03:19.303Z,7.90
2018-01-26T17:05:45.587Z,7.90
2018-01-26T17:08:11.860Z,7.90
2018-01-26T17:10:38.166Z,7.90
2018-01-26T17:13:04.412Z,7.90
2018-01-26T17:15:30.650Z,8.00
2018-01-26T17:17:56.912Z,8.00
2018-01-26T17:20:23.183Z,8.00
2018-01-26T17:22:49.431Z,8.00
2018-01-26T17:25:15.702Z,7.90
2018-01-26T17:27:41.957Z,7.90
2018-01-26T17:30:08.223Z,7.80
2018-01-26T17:32:34.652Z,7.70
2018-01-26T17:35:00.936Z,7.70
2018-01-26T17:37:27.179Z,7.60
2018-01-26T17:39:53.426Z,7.60
2018-01-26T17:42:19.732Z,7.50
2018-01-26T17:44:48.818Z,7.50
2018-01-26T17:47:15.071Z,7.50
2018-01-26T17:49:42.813Z,7.50
2018-01-26T17:52:09.831Z,7.40
2018-01-26T17:54:36.091Z,7.40
2018-01-26T17:57:02.392Z,7.30
2018-01-26T17:59:29.574Z,7.30
2018-01-26T18:01:56.659Z,7.20
2018-01-26T18:04:24.084Z,7.20
2018-01-26T18:06:50.475Z,7.20
2018-01-26T18:09:16.731Z,7.10
2018-01-26T18:11:43.005Z,7.10
2018-01-26T18:14:09.255Z,7.10
2018-01-26T18:16:35.674Z,7.10
2018-01-26T18:19:02.109Z,7.10
2018-01-26T18:21:28.362Z,7.10
2018-01-26T18:23:54.623Z,7.10
2018-01-26T18:26:20.922Z,7.10
2018-01-26T18:28:47.363Z,7.10
2018-01-26T18:31:15.611Z,7.10
2018-01-26T18:33:41.883Z,7.20
2018-01-26T18:36:08.130Z,7.10
2018-01-26T18:38:34.434Z,7.10
2018-01-26T18:41:00.647Z,7.10
2018-01-26T18:43:27.355Z,7.10
2018-01-26T18:45:53.639Z,7.10
2018-01-26T18:48:21.579Z,6.90
2018-01-26T18:50:47.915Z,6.90
2018-01-26T18:53:15.082Z,6.80
2018-01-26T18:55:42.306Z,6.70
2018-01-26T18:58:08.927Z,6.70
2018-01-26T19:00:35.211Z,6.70
2018-01-26T19:03:01.593Z,6.70
2018-01-26T19:05:27.856Z,6.70
2018-01-26T19:07:54.120Z,6.70
2018-01-26T19:10:20.411Z,6.60
2018-01-26T19:12:46.644Z,6.70
2018-01-26T19:15:12.890Z,6.70
2018-01-26T19:17:39.998Z,6.70
2018-01-26T19:20:06.242Z,6.60
2018-01-26T19:22:32.762Z,6.60
2018-01-26T19:24:59.041Z,6.60
2018-01-26T19:27:25.371Z,6.60
2018-01-26T19:29:51.595Z,6.50
2018-01-26T19:32:17.872Z,6.50
2018-01-26T19:34:44.481Z,6.40
2018-01-26T19:37:10.742Z,6.30
2018-01-26T19:39:37.041Z,6.30
2018-01-26T19:42:03.373Z,6.30
2018-01-26T19:44:29.651Z,6.30
2018-01-26T19:46:58.070Z,6.20
2018-01-26T19:49:24.299Z,6.10
2018-01-26T19:51:50.555Z,6.10
2018-01-26T19:54:16.807Z,6.00
2018-01-26T19:56:43.060Z,5.90
2018-01-26T19:59:09.282Z,5.80
2018-01-26T20:01:35.671Z,5.80
2018-01-26T20:04:03.647Z,5.70
2018-01-26T20:06:49.257Z,5.70
2018-01-26T20:09:16.323Z,5.70
2018-01-26T20:11:45.249Z,5.70
2018-01-26T20:14:17.724Z,5.70
2018-01-26T20:16:43.984Z,5.70
2018-01-26T20:19:11.080Z,5.70
2018-01-26T20:21:37.355Z,5.60
2018-01-26T20:24:03.595Z,5.70
2018-01-26T20:26:30.664Z,5.60
2018-01-26T20:28:56.949Z,5.60
2018-01-26T20:31:23.194Z,5.60
2018-01-26T20:33:49.500Z,5.50
2018-01-26T20:36:15.730Z,5.60
2018-01-26T20:38:42.036Z,5.60
2018-01-26T20:41:08.274Z,5.60
2018-01-26T20:43:34.840Z,5.60
2018-01-26T20:46:01.915Z,5.60
2018-01-26T20:48:28.300Z,5.60
2018-01-26T20:50:55.339Z,5.50
2018-01-26T20:53:22.940Z,5.50
2018-01-26T20:55:50.067Z,5.50
2018-01-26T20:58:16.418Z,5.40
2018-01-26T21:00:42.672Z,5.40
2018-01-26T21:03:09.634Z,5.40
2018-01-26T21:05:36.623Z,5.30
2018-01-26T21:08:03.910Z,5.30
2018-01-26T21:10:30.223Z,5.30
2018-01-26T21:12:56.527Z,5.30
2018-01-26T21:15:22.807Z,5.30
2018-01-26T21:17:49.040Z,5.40
2018-01-26T21:20:17.271Z,5.50
2018-01-26T21:22:43.695Z,5.50
2018-01-26T21:25:09.983Z,5.50
2018-01-26T21:27:38.451Z,5.60
2018-01-26T21:30:06.751Z,5.70
2018-01-26T21:32:32.991Z,5.70
2018-01-26T21:34:59.323Z,5.70
2018-01-26T21:37:25.578Z,5.70
2018-01-26T21:39:51.819Z,5.60
2018-01-26T21:42:18.648Z,5.50
2018-01-26T21:44:44.921Z,5.40
2018-01-26T21:47:11.191Z,5.40
2018-01-26T21:49:37.824Z,5.40
2018-01-26T21:52:04.144Z,5.40
2018-01-26T21:54:30.370Z,5.40
2018-01-26T21:56:57.602Z,5.40
2018-01-26T21:59:23.871Z,5.40
2018-01-26T22:01:50.148Z,5.50
2018-01-26T22:04:16.459Z,5.40
2018-01-26T22:06:48.843Z,5.40
2018-01-26T22:09:15.123Z,5.40
2018-01-26T22:11:41.360Z,5.30
2018-01-26T22:14:08.356Z,5.20
2018-01-26T22:16:34.631Z,5.20
2018-01-26T22:19:00.927Z,5.20
2018-01-26T22:21:27.183Z,5.20
2018-01-26T22:23:53.974Z,5.20
2018-01-26T22:26:20.996Z,5.10
2018-01-26T22:28:47.256Z,5.10
2018-01-26T22:31:13.579Z,5.00
2018-01-26T22:33:39.886Z,5.00
2018-01-26T22:36:06.536Z,5.00
2018-01-26T22:38:32.820Z,5.10
2018-01-26T22:40:59.971Z,5.10
2018-01-26T22:43:26.204Z,5.20
2018-01-26T22:45:52.703Z,5.10
2018-01-26T22:48:18.943Z,5.20
2018-01-26T22:50:45.927Z,5.20
2018-01-26T22:53:13.612Z,5.20
2018-01-26T22:55:41.771Z,5.30
2018-01-26T22:58:08.031Z,5.30
2018-01-26T23:00:34.299Z,5.30
2018-01-26T23:03:00.547Z,5.30
2018-01-26T23:05:26.788Z,5.40
2018-01-26T23:07:57.938Z,5.40
2018-01-26T23:10:24.249Z,5.50
2018-01-26T23:12:50.523Z,5.50
2018-01-26T23:15:16.743Z,5.50
2018-01-26T23:17:43.007Z,5.50
2018-01-26T23:20:09.258Z,5.60
2018-01-26T23:22:35.667Z,5.60
2018-01-26T23:25:02.646Z,5.60
2018-01-26T23:27:30.575Z,5.70
2018-01-26T23:29:56.822Z,5.60
2018-01-26T23:32:23.084Z,5.70
2018-01-26T23:34:49.330Z,5.70
2018-01-26T23:37:15.592Z,5.60
2018-01-26T23:39:41.874Z,5.70
2018-01-26T23:42:10.070Z,5.70
2018-01-26T23:44:36.557Z,5.60
2018-01-26T23:47:02.927Z,5.60
2018-01-26T23:49:29.172Z,5.70
2018-01-26T23:51:55.393Z,5.70
2018-01-26T23:54:21.673Z,5.70
2018-01-26T23:56:48.086Z,5.60
2018-01-26T23:59:14.402Z,5.60
